• Join FlightAware (Why Join?)
  • Login
  • US Flag 
02:03PM EST


 

Airport Tracker/Info


-or-


 

Live Flight TrackerFlight Track Log ✈ SWA2336 ✈ 20-Apr-2013 ✈ KIND - KLAS

Flight Track Log - Related Links

Times and Time Zones

All times are in EDT time to prevent confusion due to time zone crossing. See the SWA2336 flight status page for this flight to view local times or setup timezone preferences in your user account.

Time Position Orientation Groundspeed Altitude Reporting Facility
EDT Latitude Longitude Course Direction KTS MPH feet Rate Location/Type
01:35PM 39.6833 -86.3500 237° Southwest 171 197 2,900  Level Indianapolis TRACON
01:36PM 39.6667 -86.4167 252° West 234 269 4,300 2,220 Climbing Indianapolis TRACON
01:37PM 39.6469 -86.5003 253° West 260 299 7,300 3,180 Climbing Indianapolis Center
01:38PM 39.6286 -86.5867 255° West 251 289 10,700 2,700 Climbing Indianapolis Center
01:39PM 39.6075 -86.6886 255° West 264 304 12,900 2,580 Climbing Indianapolis Center
01:40PM 39.6069 -86.8108 270° West 311 358 16,000 2,640 Climbing Indianapolis Center
01:41PM 39.6078 -86.9333 271° West 326 375 18,400 2,520 Climbing Indianapolis Center
01:42PM 39.6069 -87.0844 270° West 342 394 21,200 2,460 Climbing Indianapolis Center
01:43PM 39.6064 -87.2183 270° West 364 419 23,500 2,040 Climbing Indianapolis Center
01:44PM 39.6061 -87.3536 270° West 372 428 25,500 1,860 Climbing Indianapolis Center
01:45PM 39.6047 -87.4931 269° West 384 442 27,400 1,920 Climbing Indianapolis Center
01:47PM 39.6042 -87.6308 270° West 383 441 29,500 1,860 Climbing Indianapolis Center
01:48PM 39.6025 -87.7692 269° West 382 440 31,200 1,680 Climbing Indianapolis Center
01:49PM 39.6017 -87.9058 270° West 382 440 33,000 1,680 Climbing Indianapolis Center
01:49PM 39.5997 -87.9889 268° West 378 435 33,900 600 Climbing Kansas City Center
01:50PM 39.5981 -88.1228 269° West 374 430 34,000  Climbing Kansas City Center
01:51PM 39.5961 -88.2569 269° West 371 427 34,000 240 Level Kansas City Center
01:52PM 39.5936 -88.3922 269° West 373 429 34,500 720 Climbing Kansas City Center
01:53PM 39.5903 -88.5253 268° West 371 427 35,500 720 Climbing Kansas City Center
01:54PM 39.5869 -88.6681 268° West 383 441 36,000 240 Climbing Kansas City Center
01:55PM 39.5833 -88.8069 268° West 386 444 36,000  Level Kansas City Center
01:56PM 39.5800 -88.9469 268° West 386 444 36,000  Level Kansas City Center
01:57PM 39.5758 -89.1114 268° West 383 441 36,000  Level Kansas City Center
01:58PM 39.5717 -89.2503 268° West 384 442 36,000  Level Kansas City Center
01:59PM 39.5681 -89.3797 268° West 382 440 36,000  Level Kansas City Center
02:00PM 39.5636 -89.5178 268° West 384 442 36,000  Level Kansas City Center
02:01PM 39.5606 -89.6556 268° West 385 443 36,000  Level Kansas City Center
02:02PM 39.5542 -89.8225 267° West 388 447 36,000  Level Kansas City Center
02:04PM 39.5494 -89.9614 268° West 389 448 36,000  Level Kansas City Center
02:05PM 39.5450 -90.1000 268° West 388 447 36,000  Level Kansas City Center
02:06PM 39.5386 -90.2367 267° West 386 444 36,000  Level Kansas City Center
02:07PM 39.5347 -90.3750 268° West 386 444 36,000  Level Kansas City Center
02:08PM 39.5297 -90.5119 267° West 385 443 36,000  Level Kansas City Center
02:09PM 39.5225 -90.6742 267° West 380 437 36,000  Level Kansas City Center
02:10PM 39.5167 -90.8081 267° West 377 434 36,000  Level Kansas City Center
02:11PM 39.5119 -90.9422 267° West 376 433 36,000  Level Kansas City Center
02:12PM 39.5058 -91.0750 267° West 373 429 36,000  Level Kansas City Center
02:13PM 39.5000 -91.2089 267° West 374 430 36,000  Level Kansas City Center
02:14PM 39.4928 -91.3439 266° West 376 433 36,000  Level Kansas City Center
02:15PM 39.4856 -91.5064 267° West 378 435 36,000  Level Kansas City Center
02:16PM 39.4786 -91.6428 266° West 380 437 36,000  Level Kansas City Center
02:17PM 39.4731 -91.7658 267° West 383 441 36,000  Level Kansas City Center
02:18PM 39.4642 -91.9336 266° West 388 447 36,000  Level Kansas City Center
02:19PM 39.4575 -92.0733 267° West 390 449 36,000 180 Level Kansas City Center
02:20PM 39.4492 -92.2133 266° West 390 449 36,400 720 Climbing Kansas City Center
02:21PM 39.4481 -92.3525 269° West 390 449 37,500 720 Climbing Kansas City Center
02:22PM 39.4464 -92.4950 269° West 393 452 37,900 240 Climbing Kansas City Center
02:23PM 39.4458 -92.6411 270° West 398 458 38,000  Climbing Kansas City Center
02:24PM 39.4433 -92.7872 269° West 403 464 38,000  Level Kansas City Center
02:25PM 39.4417 -92.9611 269° West 404 465 38,000  Level Kansas City Center
02:26PM 39.4389 -93.1069 269° West 406 467 38,000  Level Kansas City Center
02:27PM 39.4375 -93.2528 269° West 407 468 38,000  Level Kansas City Center
02:28PM 39.4356 -93.3972 269° West 405 466 38,000  Level Kansas City Center
02:29PM 39.4333 -93.5417 269° West 403 464 38,000  Level Kansas City Center
02:30PM 39.4303 -93.6856 268° West 401 461 38,000  Level Kansas City Center
02:31PM 39.4275 -93.8375 269° West 397 457 38,000  Level Kansas City Center
02:32PM 39.4239 -93.9981 268° West 401 461 38,000  Level Kansas City Center
02:33PM 39.4211 -94.1350 269° West 401 461 38,000  Level Kansas City Center
02:34PM 39.4181 -94.2956 269° West 402 463 38,000  Level Kansas City Center
02:35PM 39.4139 -94.4339 268° West 403 464 38,000  Level Kansas City Center
02:36PM 39.4097 -94.5961 268° West 405 466 38,000  Level Kansas City Center
02:38PM 39.4056 -94.7358 268° West 406 467 38,000  Level Kansas City Center
02:39PM 39.4006 -94.8956 268° West 400 460 38,000  Level Kansas City Center
02:40PM 39.3972 -95.0322 268° West 400 460 38,000  Level Kansas City Center
02:41PM 39.3922 -95.1869 268° West 401 461 38,000  Level Kansas City Center
02:42PM 39.3875 -95.3414 268° West 400 460 38,000  Level Kansas City Center
02:43PM 39.3833 -95.4853 268° West 401 461 38,000  Level Kansas City Center
02:44PM 39.3778 -95.6197 267° West 394 453 38,000  Level Kansas City Center
02:45PM 39.3722 -95.7783 267° West 397 457 38,000  Level Kansas City Center
02:46PM 39.3658 -95.9169 267° West 403 464 38,000  Level Kansas City Center
02:47PM 39.3608 -96.0753 268° West 396 456 38,000  Level Kansas City Center
02:48PM 39.3525 -96.2211 266° West 397 457 38,000  Level Kansas City Center
02:49PM 39.3472 -96.3650 267° West 400 460 38,000  Level Kansas City Center
02:50PM 39.3403 -96.5111 267° West 404 465 38,000  Level Kansas City Center
02:51PM 39.3358 -96.6503 268° West 405 466 38,000  Level Kansas City Center
02:52PM 39.3278 -96.8133 266° West 407 468 38,000  Level Kansas City Center
02:53PM 39.3214 -96.9531 267° West 407 468 38,000  Level Kansas City Center
02:54PM 39.3131 -97.1178 266° West 411 473 38,000  Level Kansas City Center
02:55PM 39.3067 -97.2581 267° West 410 472 38,000  Level Kansas City Center
02:56PM 39.2986 -97.4217 266° West 410 472 38,000  Level Kansas City Center
02:57PM 39.2931 -97.5681 267° West 407 468 38,000  Level Kansas City Center
02:58PM 39.2853 -97.7122 266° West 402 463 38,000  Level Kansas City Center
02:59PM 39.2781 -97.8564 266° West 403 464 38,000  Level Kansas City Center
03:00PM 39.2678 -97.9953 265° West 399 459 38,000  Level Kansas City Center
03:01PM 39.2589 -98.1536 266° West 397 457 38,000  Level Kansas City Center
03:02PM 39.2539 -98.2856 267° West 402 463 38,000  Level Kansas City Center
03:03PM 39.2433 -98.4589 266° West 402 463 38,000  Level Kansas City Center
03:04PM 39.2392 -98.5175 265° West 402 463 38,000  Level Denver Center
03:05PM 39.2306 -98.6622 266° West 402 463 38,000  Level Denver Center
03:06PM 39.2222 -98.8081 266° West 406 467 38,000  Level Denver Center
03:07PM 39.2108 -98.9583 264° West 404 465 38,000  Level Denver Center
03:08PM 39.2022 -99.0969 265° West 405 466 38,000  Level Denver Center
03:09PM 39.1922 -99.2569 265° West 402 463 38,000  Level Denver Center
03:10PM 39.1836 -99.3894 265° West 402 463 38,000  Level Denver Center
03:11PM 39.1722 -99.5478 265° West 400 460 38,000  Level Denver Center
03:12PM 39.1633 -99.6847 265° West 401 461 38,000  Level Denver Center
03:13PM 39.1519 -99.8408 265° West 395 455 38,000  Level Denver Center
03:14PM 39.1414 -99.9775 264° West 399 459 38,000  Level Denver Center
03:15PM 39.1308 -100.1219 265° West 402 463 38,000  Level Denver Center
03:16PM 39.1203 -100.2575 264° West 402 463 38,000  Level Denver Center
03:17PM 39.1083 -100.4186 265° West 404 465 38,000  Level Denver Center
03:18PM 39.0975 -100.5558 264° West 403 464 38,000  Level Denver Center
03:19PM 39.0850 -100.7189 264° West 408 470 38,000  Level Denver Center
03:20PM 39.0739 -100.8572 264° West 407 468 38,000  Level Denver Center
03:21PM 39.0622 -100.9944 264° West 406 467 38,000  Level Denver Center
03:22PM 39.0500 -101.1583 265° West 408 470 38,000  Level Denver Center
03:23PM 39.0378 -101.2944 263° West 402 463 38,000  Level Denver Center
03:24PM 39.0250 -101.4408 264° West 399 459 38,000  Level Denver Center
03:25PM 39.0114 -101.6008 264° West 403 464 38,000  Level Denver Center
03:26PM 38.9994 -101.7375 264° West 403 464 38,000  Level Denver Center
03:27PM 38.9872 -101.8739 263° West 402 463 38,000  Level Denver Center
03:28PM 38.9728 -102.0353 263° West 408 470 38,000  Level Denver Center
03:29PM 38.9589 -102.1728 263° West 407 468 38,000  Level Denver Center
03:30PM 38.9447 -102.3325 264° West 406 467 38,000  Level Denver Center
03:31PM 38.9319 -102.4694 263° West 405 466 38,000  Level Denver Center
03:32PM 38.9161 -102.6300 263° West 407 468 38,000  Level Denver Center
03:33PM 38.9031 -102.7625 263° West 407 468 38,000  Level Denver Center
03:34PM 38.8894 -102.9083 263° West 408 470 38,000  Level Denver Center
03:35PM 38.8758 -103.0547 263° West 409 471 38,000  Level Denver Center
03:36PM 38.8606 -103.2017 262° West 411 473 38,000  Level Denver Center
03:37PM 38.8450 -103.3486 262° West 412 474 38,000  Level Denver Center
03:38PM 38.8275 -103.5128 262° West 411 473 38,000  Level Denver Center
03:40PM 38.8131 -103.6494 262° West 405 466 38,000  Level Denver Center
03:41PM 38.7864 -103.8072 258° West 404 465 38,000  Level Denver Center
03:42PM 38.7631 -103.9433 258° West 408 470 38,000  Level Denver Center
03:43PM 38.7367 -104.1000 258° West 404 465 38,000  Level Denver Center
03:44PM 38.7147 -104.2372 258° West 408 470 38,000  Level Denver Center
03:45PM 38.6892 -104.3814 257° West 410 472 38,000  Level Denver Center
03:46PM 38.6650 -104.5244 258° West 407 468 38,000  Level Denver Center
03:47PM 38.6403 -104.6667 257° West 407 468 38,000  Level Denver Center
03:48PM 38.6147 -104.8103 257° West 409 471 38,000  Level Denver Center
03:49PM 38.5892 -104.9556 257° West 412 474 38,000  Level Denver Center
03:50PM 38.5631 -105.0997 257° West 413 475 38,000  Level Denver Center
03:51PM 38.5369 -105.2433 257° West 412 474 38,000  Level Denver Center
03:52PM 38.5114 -105.3889 257° West 414 476 38,000  Level Denver Center
03:53PM 38.4853 -105.5317 257° West 411 473 38,000  Level Denver Center
03:54PM 38.4586 -105.6753 257° West 411 473 38,000  Level Denver Center
03:55PM 38.4292 -105.8336 257° West 417 480 38,000  Level Denver Center
03:56PM 38.4019 -105.9806 257° West 410 472 38,000  Level Denver Center
03:57PM 38.3769 -106.1158 257° West 411 473 38,000  Level Denver Center
03:58PM 38.3492 -106.2569 256° West 408 470 38,000  Level Denver Center
03:59PM 38.3228 -106.3989 257° West 409 471 38,000  Level Denver Center
04:00PM 38.2928 -106.5558 256° West 411 473 38,000  Level Denver Center
04:01PM 38.2667 -106.6889 256° West 407 468 38,000  Level Denver Center
04:02PM 38.2367 -106.8433 256° West 405 466 38,000  Level Denver Center
04:03PM 38.2133 -106.9633 256° West 408 470 38,000  Level Denver Center
04:04PM 38.1797 -107.1286 256° West 408 470 38,000  Level Denver Center
04:05PM 38.1531 -107.2708 257° West 413 475 38,000  Level Denver Center
04:06PM 38.1256 -107.4050 255° West 411 473 38,000  Level Denver Center
04:07PM 38.0942 -107.5625 256° West 411 473 38,000  Level Denver Center
04:08PM 38.0656 -107.7042 256° West 406 467 38,000  Level Denver Center
04:09PM 38.0383 -107.8361 255° West 405 466 38,000  Level Denver Center
04:10PM 38.0108 -107.9678 255° West 404 465 38,000  Level Denver Center
04:11PM 37.9794 -108.1225 256° West 407 468 38,000  Level Denver Center
04:12PM 37.9522 -108.2572 256° West 411 473 38,000  Level Denver Center
04:13PM 37.9194 -108.4097 255° West 405 466 38,000  Level Denver Center
04:14PM 37.8911 -108.5442 255° West 410 472 38,000  Level Denver Center
04:15PM 37.8631 -108.6786 255° West 412 474 38,000  Level Denver Center
04:16PM 37.8292 -108.8347 255° West 414 476 38,000  Level Denver Center
04:17PM 37.7997 -108.9664 254° West 410 472 38,000  Level Denver Center
04:18PM 37.7614 -109.1194 252° West 410 472 38,000  Level Denver Center
04:19PM 37.7292 -109.2514 253° West 410 472 38,000  Level Denver Center
04:20PM 37.6969 -109.3803 253° West 405 466 38,000  Level Denver Center
04:21PM 37.6597 -109.5281 252° West 397 457 38,000  Level Denver Center
04:22PM 37.6275 -109.6558 252° West 398 458 38,000  Level Denver Center
04:24PM 37.5906 -109.8019 252° West 394 453 38,000  Level Denver Center
04:25PM 37.5581 -109.9308 252° West 400 460 38,000  Level Denver Center
04:26PM 37.5256 -110.0581 252° West 399 459 38,000  Level Denver Center
04:28PM 37.4536 -110.3369 252° West 400 460 38,000 -240 Level Denver Center
04:29PM 37.4186 -110.4692 252° West 399 459 37,300 -840 Descending Denver Center
04:30PM 37.3842 -110.6047 252° West 407 468 36,300 -960 Descending Denver Center
04:31PM 37.3486 -110.7408 252° West 409 471 35,400 -840 Descending Denver Center
04:32PM 37.3186 -110.8503 251° West 412 474 34,600 -1,140 Descending Denver Center
04:33PM 37.2736 -111.0239 252° West 377 434 33,100 -1,200 Descending Denver Center
04:34PM 37.2414 -111.1419 251° West 363 418 32,200 -540 Descending Denver Center
04:35PM 37.2092 -111.2614 251° West 360 414 32,000 -120 Descending Denver Center
04:36PM 37.1761 -111.3825 251° West 365 420 32,000  Level Denver Center
04:37PM 37.1439 -111.5028 251° West 366 421 32,000  Level Denver Center
04:38PM 37.1133 -111.6219 252° West 360 414 32,000  Level Denver Center
04:39PM 37.0814 -111.7419 252° West 361 415 32,000  Level Denver Center
04:40PM 37.0469 -111.8647 251° West 369 425 32,000  Level Denver Center
04:41PM 37.0111 -111.9875 250° West 372 428 32,000  Level Denver Center
04:42PM 36.9844 -112.1128 255° West 374 430 32,000  Level Denver Center
04:42PM 36.9686 -112.1878 255° West 367 422 32,000  Level Los Angeles Center
04:43PM 36.9442 -112.3125 256° West 368 423 32,000  Level Los Angeles Center
04:44PM 36.9186 -112.4394 256° West 373 429 32,000  Level Los Angeles Center
04:45PM 36.8939 -112.5628 256° West 368 423 32,000  Level Los Angeles Center
04:47PM 36.8683 -112.6892 256° West 371 427 32,000  Level Los Angeles Center
04:48PM 36.8369 -112.8403 255° West 374 430 32,000  Level Los Angeles Center
04:49PM 36.8111 -112.9644 255° West 370 426 32,000  Level Los Angeles Center
04:50PM 36.7856 -113.0897 256° West 372 428 32,000  Level Los Angeles Center
04:51PM 36.7533 -113.2144 252° West 377 434 32,000 -60 Level Los Angeles Center
04:52PM 36.7175 -113.3400 250° West 383 441 31,900 -1,260 Descending Los Angeles Center
04:53PM 36.6836 -113.4636 251° West 379 436 29,500 -2,280 Descending Los Angeles Center
04:54PM 36.6500 -113.5839 251° West 370 426 27,300 -2,280 Descending Los Angeles Center
04:55PM 36.6108 -113.7203 250° West 352 405 24,800 -2,220 Descending Los Angeles Center
04:56PM 36.5803 -113.8336 251° West 347 399 22,800 -2,040 Descending Los Angeles Center
04:57PM 36.5478 -113.9472 250° West 349 402 20,700 -2,040 Descending Los Angeles Center
04:58PM 36.5158 -114.0597 251° West 346 398 18,700 -2,100 Descending Los Angeles Center
04:59PM 36.4908 -114.1494 251° West 340 391 17,000 -2,040 Descending Los Angeles Center
04:59PM 36.4828 -114.1756 249° West 337 388 16,600 -2,040 Descending Los Angeles Center
04:59PM 36.4708 -114.2342 256° West 342 394 15,600 -1,920 Descending Los Angeles Center
05:00PM 36.4508 -114.2833 243° Southwest 333 383 14,600 -1,980 Descending Los Angeles Center
05:00PM 36.4419 -114.3269 256° West 331 381 13,800 -1,860 Descending Los Angeles Center
05:01PM 36.4203 -114.3919 248° West 334 384 12,700 -1,800 Descending Los Angeles Center
05:01PM 36.4103 -114.4369 255° West 330 380 12,000 -720 Descending Los Angeles Center
05:02PM 36.3886 -114.4964 246° West 326 375 12,000 -240 Level Los Angeles Center
05:02PM 36.3683 -114.5397 240° Southwest 331 381 11,800 -900 Descending Los Angeles Center
05:03PM 36.3325 -114.6139 239° Southwest 328 377 11,100 -1,020 Descending Los Angeles Center
05:04PM 36.2867 -114.7128 240° Southwest 330 380 10,000 -540 Descending Los Angeles Center
05:05PM 36.2331 -114.8283 240° Southwest 311 358 10,000 -420 Level Los Angeles Center
05:06PM 36.2008 -114.8953 239° Southwest 297 342 9,200 -960 Descending Los Angeles Center
05:07PM 36.1622 -114.9775 240° Southwest 279 321 8,200 -600 Descending Los Angeles Center
05:08PM 36.1086 -115.0697 234° Southwest 240 276 8,000 -120 Descending Los Angeles Center
05:09PM 36.0683 -115.0856 198° South 223 257 8,000 -420 Level Los Angeles Center
05:10PM 36.0075 -115.1139 201° Southwest 198 228 7,200 -960 Descending Los Angeles Center
05:11PM 35.9611 -115.1556 216° Southwest 197 227 6,000 -900 Descending Los Angeles Center
05:12PM 35.9578 -115.2094 266° West 195 224 5,400 -600 Descending Los Angeles Center
05:13PM 35.9983 -115.2192 349° North 184 212 4,900 -1,260 Descending Los Angeles Center
05:14PM 36.0439 -115.1828 33° Northeast 173 199 2,900 3,420 Descending Los Angeles Center
05:15PM 36.0811 -115.1633 23° Northeast 161 185 12,000 8,760 Climbing Los Angeles Center
05:17PM 36.0801 -115.1523 219° Southwest  Level Estimated
05:24PM 36.0801 -115.1523 219° Southwest  Level Estimated